YZR weather

Chris Hadfield Airport
Sarnia, Ontario, Canada

Public forecast

Using degrees Celsius for public forecast. Weather courtesy of forecast.io.

Current aviation weather report (METAR) for Chris Hadfield Airport

Retrieved 2019/10/20 20:00 UTC (20 minutes ago):

CYZR 202000Z AUTO 03005KT 330V070 9SM CLR 18/08 A2989 RMK RVR MISG SLP123 DENSITY ALT 1000FT

Aviation forecast (TAF) for Chris Hadfield Airport

Retrieved 2019/10/20 20:00 UTC (20 minutes ago):

TAF CYZR 201938Z 2020/2102 VRB03KT P6SM SCT080 RMK FCST BASED ON AUTO OBS NXT FCST WILL BE ISSUED AT 210745Z